Time;durP1;ratioP1;P1;durP2;ratioP2;P2;SDS_P1;SDS_P2;PMS_P1;PMS_P2;Temp;Humidity;BMP_temperature;BMP_pressure;BME280_temperature;BME280_humidity;BME280_pressure;Samples;Min_cycle;Max_cycle;Signal;HPM_P1;HPM_P2
2023/07/02 00:01:42;;;;;;;26.35;8.00;;;;;;;;;;5035443;28;20104;-74
2023/07/02 00:04:08;;;;;;;28.00;8.38;;;;;;;;;;5042514;28;20506;-74
2023/07/02 00:06:40;;;;;;;23.50;8.02;;;;;;;;;;5056195;28;20089;-73
2023/07/02 00:09:06;;;;;;;20.85;7.53;;;;;;;;;;5036258;28;20029;-74
2023/07/02 00:11:32;;;;;;;27.77;7.10;;;;;;;;;;5031033;28;20056;-73
2023/07/02 00:13:58;;;;;;;27.35;7.93;;;;;;;;;;5052882;28;20494;-73
2023/07/02 00:16:24;;;;;;;27.05;7.78;;;;;;;;;;5038754;28;20037;-73
2023/07/02 00:18:52;;;;;;;20.42;6.88;;;;;;;;;;5036289;28;20359;-73
2023/07/02 00:21:20;;;;;;;21.83;7.63;;;;;;;;;;5042854;28;20031;-73
2023/07/02 00:23:46;;;;;;;21.13;7.72;;;;;;;;;;5039879;28;20029;-73
2023/07/02 00:26:12;;;;;;;30.50;8.75;;;;;;;;;;5038398;28;20025;-73
2023/07/02 00:28:38;;;;;;;32.95;8.52;;;;;;;;;;5033603;28;20033;-73
2023/07/02 00:31:04;;;;;;;33.95;8.93;;;;;;;;;;5037271;28;20538;-73
2023/07/02 00:33:32;;;;;;;23.35;7.10;;;;;;;;;;5036985;28;20045;-73
2023/07/02 00:36:00;;;;;;;22.52;8.13;;;;;;;;;;5034328;28;20100;-73
2023/07/02 00:38:26;;;;;;;22.05;8.15;;;;;;;;;;5041513;28;20026;-73
2023/07/02 00:40:52;;;;;;;25.88;7.30;;;;;;;;;;5041285;28;20036;-74
2023/07/02 00:43:18;;;;;;;21.80;7.75;;;;;;;;;;5032153;28;20044;-74
2023/07/02 00:45:45;;;;;;;25.40;8.27;;;;;;;;;;5040142;28;20936;-73
2023/07/02 00:48:12;;;;;;;27.50;8.25;;;;;;;;;;5037893;28;20036;-74
2023/07/02 00:50:39;;;;;;;25.83;8.68;;;;;;;;;;5037427;28;20108;-74
2023/07/02 00:53:05;;;;;;;19.08;7.95;;;;;;;;;;5042269;28;20105;-73
2023/07/02 00:55:31;;;;;;;28.85;7.78;;;;;;;;;;5042681;28;20405;-73
2023/07/02 00:57:58;;;;;;;22.80;8.10;;;;;;;;;;5039201;28;20049;-73
2023/07/02 01:00:24;;;;;;;23.45;7.97;;;;;;;;;;5038909;28;20112;-73
2023/07/02 01:02:59;;;;;;;25.80;8.90;;;;;;;;;;5027091;28;20057;-73
2023/07/02 01:05:38;;;;;;;31.15;9.50;;;;;;;;;;5029235;28;20030;-73
2023/07/02 01:08:04;;;;;;;23.55;8.63;;;;;;;;;;5039625;28;20103;-74
2023/07/02 01:10:31;;;;;;;28.75;8.98;;;;;;;;;;5038601;28;20039;-73
2023/07/02 01:12:58;;;;;;;27.17;9.60;;;;;;;;;;5037526;28;20483;-73
2023/07/02 01:15:24;;;;;;;23.30;8.85;;;;;;;;;;5034116;28;20152;-73
2023/07/02 01:17:50;;;;;;;33.30;9.57;;;;;;;;;;5036317;28;20044;-73
2023/07/02 01:20:16;;;;;;;30.75;9.20;;;;;;;;;;5038821;28;20117;-72
2023/07/02 01:22:42;;;;;;;23.10;9.48;;;;;;;;;;5031429;28;20029;-72
2023/07/02 01:25:08;;;;;;;28.48;9.48;;;;;;;;;;5035162;28;20108;-72
2023/07/02 01:27:35;;;;;;;36.53;9.30;;;;;;;;;;5039191;28;21018;-72
2023/07/02 01:30:02;;;;;;;27.88;9.45;;;;;;;;;;5041064;28;20541;-73
2023/07/02 01:32:28;;;;;;;31.42;10.52;;;;;;;;;;5033830;28;20064;-72
2023/07/02 01:34:55;;;;;;;33.08;8.77;;;;;;;;;;5038741;28;20038;-73
2023/07/02 01:37:24;;;;;;;34.00;9.20;;;;;;;;;;5037448;28;20395;-72
2023/07/02 01:39:50;;;;;;;27.35;9.32;;;;;;;;;;5041439;28;20033;-72
2023/07/02 01:42:18;;;;;;;24.98;9.02;;;;;;;;;;5041638;28;20025;-72
2023/07/02 01:44:45;;;;;;;30.13;9.88;;;;;;;;;;5036905;28;20026;-71
2023/07/02 01:47:11;;;;;;;24.08;7.97;;;;;;;;;;5044664;28;20107;-72
2023/07/02 01:49:37;;;;;;;27.60;8.82;;;;;;;;;;5035413;28;20091;-72
2023/07/02 01:52:04;;;;;;;24.25;8.88;;;;;;;;;;5031308;28;20037;-72
2023/07/02 01:54:31;;;;;;;33.30;9.25;;;;;;;;;;5029089;28;20041;-72
2023/07/02 01:56:58;;;;;;;25.73;8.85;;;;;;;;;;5047632;28;20056;-72
2023/07/02 01:59:24;;;;;;;28.42;8.18;;;;;;;;;;5036282;28;20033;-72
2023/07/02 02:01:50;;;;;;;30.20;9.15;;;;;;;;;;5053017;28;20100;-72
2023/07/02 02:04:16;;;;;;;24.30;8.15;;;;;;;;;;5036889;28;20037;-73
2023/07/02 02:06:42;;;;;;;30.23;9.23;;;;;;;;;;5030039;28;20091;-72
2023/07/02 02:09:11;;;;;;;34.92;9.13;;;;;;;;;;5036996;28;20037;-72
2023/07/02 02:11:39;;;;;;;33.53;9.77;;;;;;;;;;5031455;28;20029;-73
2023/07/02 02:14:05;;;;;;;29.33;8.32;;;;;;;;;;5032486;28;20098;-72
2023/07/02 02:16:33;;;;;;;30.25;9.50;;;;;;;;;;5034877;28;20099;-72
2023/07/02 02:18:59;;;;;;;38.65;9.07;;;;;;;;;;5034702;28;20037;-73
2023/07/02 02:21:26;;;;;;;30.55;8.82;;;;;;;;;;5038959;28;20026;-72
2023/07/02 02:23:52;;;;;;;33.00;9.77;;;;;;;;;;5032208;28;20064;-71
2023/07/02 02:26:18;;;;;;;29.35;9.45;;;;;;;;;;5047368;28;20046;-72
2023/07/02 02:28:44;;;;;;;28.55;9.40;;;;;;;;;;5040866;28;20034;-72
2023/07/02 02:31:10;;;;;;;32.92;10.00;;;;;;;;;;5034391;28;20037;-73
2023/07/02 02:33:36;;;;;;;32.13;9.23;;;;;;;;;;5041555;28;20045;-72
2023/07/02 02:36:02;;;;;;;24.27;8.65;;;;;;;;;;5032697;28;20041;-72
2023/07/02 02:38:28;;;;;;;34.38;8.60;;;;;;;;;;5036303;28;20495;-72
2023/07/02 02:40:54;;;;;;;27.38;9.10;;;;;;;;;;5037131;28;20040;-72
2023/07/02 02:43:20;;;;;;;24.92;8.95;;;;;;;;;;5041512;28;20036;-72
2023/07/02 02:45:47;;;;;;;34.25;9.45;;;;;;;;;;5029378;28;20516;-72
2023/07/02 02:48:13;;;;;;;38.17;10.43;;;;;;;;;;5035818;28;20029;-72
2023/07/02 02:50:43;;;;;;;30.73;9.45;;;;;;;;;;5033217;28;20051;-72
2023/07/02 02:53:09;;;;;;;25.75;8.88;;;;;;;;;;5034708;28;20033;-73
2023/07/02 02:55:36;;;;;;;26.67;8.45;;;;;;;;;;5029776;28;20088;-73
2023/07/02 02:58:02;;;;;;;23.48;8.65;;;;;;;;;;5038236;28;20103;-72
2023/07/02 03:00:28;;;;;;;30.10;8.60;;;;;;;;;;5038181;28;20029;-72
2023/07/02 03:02:55;;;;;;;31.67;10.23;;;;;;;;;;5050596;28;20544;-73
2023/07/02 03:05:21;;;;;;;31.02;10.30;;;;;;;;;;5038060;28;20033;-73
2023/07/02 03:07:47;;;;;;;26.67;9.00;;;;;;;;;;5037628;28;20383;-73
2023/07/02 03:10:13;;;;;;;35.67;10.02;;;;;;;;;;5035913;28;20601;-73
2023/07/02 03:12:39;;;;;;;34.13;9.52;;;;;;;;;;5034810;28;20025;-73
2023/07/02 03:15:06;;;;;;;30.92;10.07;;;;;;;;;;5035815;28;20425;-72
2023/07/02 03:17:32;;;;;;;28.48;9.70;;;;;;;;;;5038200;28;20068;-72
2023/07/02 03:19:58;;;;;;;24.83;9.15;;;;;;;;;;5034530;28;20109;-72
2023/07/02 03:22:24;;;;;;;29.20;9.00;;;;;;;;;;5037195;28;20036;-73
2023/07/02 03:24:50;;;;;;;32.63;9.90;;;;;;;;;;5037366;28;20604;-73
2023/07/02 03:27:16;;;;;;;29.40;9.02;;;;;;;;;;5040096;28;20037;-73
2023/07/02 03:29:42;;;;;;;37.75;11.30;;;;;;;;;;5037129;28;20149;-73
2023/07/02 03:32:08;;;;;;;27.95;8.13;;;;;;;;;;5042436;28;20086;-73
2023/07/02 03:34:34;;;;;;;32.03;8.77;;;;;;;;;;5036113;28;20483;-73
2023/07/02 03:37:00;;;;;;;28.75;9.30;;;;;;;;;;5034818;28;20060;-73
2023/07/02 03:39:26;;;;;;;26.73;7.82;;;;;;;;;;5042068;28;20025;-73
2023/07/02 03:41:52;;;;;;;21.60;7.95;;;;;;;;;;5031258;28;20138;-73
2023/07/02 03:44:19;;;;;;;28.63;8.30;;;;;;;;;;5040512;28;20634;-73
2023/07/02 03:46:45;;;;;;;26.45;8.93;;;;;;;;;;5038893;28;20021;-73
2023/07/02 03:49:11;;;;;;;25.92;8.50;;;;;;;;;;5042447;28;20043;-73
2023/07/02 03:51:38;;;;;;;26.13;8.25;;;;;;;;;;5036853;28;20033;-72
2023/07/02 03:54:04;;;;;;;26.67;7.95;;;;;;;;;;5041535;28;20133;-72
2023/07/02 03:56:30;;;;;;;27.13;8.32;;;;;;;;;;5051246;28;20077;-72
2023/07/02 03:58:56;;;;;;;27.70;8.02;;;;;;;;;;5042178;28;20431;-72
2023/07/02 04:01:22;;;;;;;29.50;9.27;;;;;;;;;;5053605;28;20034;-72
2023/07/02 04:03:49;;;;;;;26.73;7.75;;;;;;;;;;5039423;28;20037;-73
2023/07/02 04:06:15;;;;;;;26.65;8.75;;;;;;;;;;5034365;28;20025;-73
2023/07/02 04:08:41;;;;;;;29.48;7.55;;;;;;;;;;5035388;28;20057;-73
2023/07/02 04:11:07;;;;;;;27.70;8.25;;;;;;;;;;5037735;28;20097;-73
2023/07/02 04:13:33;;;;;;;23.88;8.13;;;;;;;;;;5046950;28;20037;-71
2023/07/02 04:15:59;;;;;;;23.30;7.45;;;;;;;;;;5036133;28;20474;-73
2023/07/02 04:18:25;;;;;;;26.40;7.88;;;;;;;;;;5032984;28;20104;-73
2023/07/02 04:20:51;;;;;;;22.58;7.88;;;;;;;;;;5041201;28;20112;-72
2023/07/02 04:23:17;;;;;;;36.25;8.73;;;;;;;;;;5039067;28;20108;-73
2023/07/02 04:25:43;;;;;;;29.98;7.72;;;;;;;;;;5036064;28;20601;-70
2023/07/02 04:28:09;;;;;;;28.83;8.45;;;;;;;;;;5044100;28;20037;-71
2023/07/02 04:30:35;;;;;;;46.58;20.95;;;;;;;;;;5048673;28;20033;-71
2023/07/02 04:33:01;;;;;;;28.13;8.30;;;;;;;;;;5051309;28;20040;-75
2023/07/02 04:35:28;;;;;;;22.45;6.65;;;;;;;;;;5051797;28;20620;-73
2023/07/02 04:37:54;;;;;;;26.85;8.50;;;;;;;;;;5042335;28;20071;-71
2023/07/02 04:40:20;;;;;;;29.25;7.50;;;;;;;;;;5030799;28;20040;-73
2023/07/02 04:42:48;;;;;;;21.98;7.00;;;;;;;;;;5041007;28;20034;-73
2023/07/02 04:45:15;;;;;;;23.00;6.72;;;;;;;;;;5038017;28;20454;-72
2023/07/02 04:47:44;;;;;;;19.98;6.30;;;;;;;;;;5034604;28;20033;-73
2023/07/02 04:50:11;;;;;;;21.40;7.30;;;;;;;;;;5044657;28;20462;-73
2023/07/02 04:52:37;;;;;;;23.90;6.55;;;;;;;;;;5046281;28;20075;-73
2023/07/02 04:55:04;;;;;;;31.10;12.10;;;;;;;;;;5035169;28;20034;-73
2023/07/02 04:57:30;;;;;;;21.23;6.20;;;;;;;;;;5033939;28;20053;-73
2023/07/02 04:59:56;;;;;;;22.63;6.82;;;;;;;;;;5042201;28;20033;-73
2023/07/02 05:02:22;;;;;;;24.98;6.30;;;;;;;;;;5040180;28;20094;-72
2023/07/02 05:04:48;;;;;;;23.77;6.15;;;;;;;;;;5038527;28;20033;-72
2023/07/02 05:07:14;;;;;;;22.70;6.28;;;;;;;;;;5037424;28;20451;-70
2023/07/02 05:09:40;;;;;;;20.25;6.95;;;;;;;;;;5038619;28;20036;-71
2023/07/02 05:12:06;;;;;;;22.13;6.07;;;;;;;;;;5034574;28;20033;-71
2023/07/02 05:14:32;;;;;;;17.25;6.43;;;;;;;;;;5034965;28;20051;-70
2023/07/02 05:16:58;;;;;;;22.08;5.47;;;;;;;;;;5034231;28;20032;-69
2023/07/02 05:19:24;;;;;;;21.45;6.55;;;;;;;;;;5041743;28;20084;-70
2023/07/02 05:21:50;;;;;;;22.58;7.03;;;;;;;;;;5039714;28;20368;-70
2023/07/02 05:24:16;;;;;;;19.67;6.55;;;;;;;;;;5036025;28;20052;-72
2023/07/02 05:26:42;;;;;;;21.83;6.82;;;;;;;;;;5050904;28;20038;-72
2023/07/02 05:29:08;;;;;;;30.73;7.60;;;;;;;;;;5051856;28;20540;-72
2023/07/02 05:31:34;;;;;;;20.10;5.82;;;;;;;;;;5040862;28;20025;-72
2023/07/02 05:34:00;;;;;;;17.92;5.57;;;;;;;;;;5040566;28;20087;-72
2023/07/02 05:36:26;;;;;;;12.68;5.57;;;;;;;;;;5037698;28;20481;-73
2023/07/02 05:38:52;;;;;;;21.02;6.60;;;;;;;;;;5048764;28;20048;-73
2023/07/02 05:41:19;;;;;;;20.05;6.53;;;;;;;;;;5052700;28;20048;-73
2023/07/02 05:43:45;;;;;;;15.35;5.55;;;;;;;;;;5033761;28;20029;-73
2023/07/02 05:46:12;;;;;;;17.80;5.55;;;;;;;;;;5036591;28;20116;-70
2023/07/02 05:48:38;;;;;;;18.70;5.85;;;;;;;;;;5040763;28;20032;-71
2023/07/02 05:51:04;;;;;;;18.77;5.85;;;;;;;;;;5033025;28;20040;-71
2023/07/02 05:53:30;;;;;;;21.65;5.85;;;;;;;;;;5053482;28;20541;-70
2023/07/02 05:55:56;;;;;;;33.08;13.80;;;;;;;;;;5035697;28;20029;-70
2023/07/02 05:58:22;;;;;;;23.95;6.47;;;;;;;;;;5038264;28;20040;-70
2023/07/02 06:00:49;;;;;;;19.60;5.63;;;;;;;;;;5039614;28;20411;-73
2023/07/02 06:03:21;;;;;;;15.02;5.55;;;;;;;;;;5034026;28;20145;-73
2023/07/02 06:05:51;;;;;;;18.85;5.70;;;;;;;;;;5045229;28;20052;-72
2023/07/02 06:08:17;;;;;;;15.38;4.97;;;;;;;;;;5053644;28;20033;-72
2023/07/02 06:10:44;;;;;;;24.40;6.32;;;;;;;;;;5048463;28;20029;-73
2023/07/02 06:13:10;;;;;;;18.08;6.55;;;;;;;;;;5045284;28;20037;-73
2023/07/02 06:15:36;;;;;;;24.25;5.28;;;;;;;;;;5046527;28;20037;-72
2023/07/02 06:18:02;;;;;;;21.70;5.68;;;;;;;;;;5047362;28;20032;-72
2023/07/02 06:20:28;;;;;;;16.98;5.38;;;;;;;;;;5053903;28;20036;-72
2023/07/02 06:22:54;;;;;;;19.58;4.97;;;;;;;;;;5042681;28;20036;-72
2023/07/02 06:25:20;;;;;;;15.77;5.65;;;;;;;;;;5054812;28;20052;-72
2023/07/02 06:27:47;;;;;;;20.35;5.57;;;;;;;;;;5045128;28;20074;-72
2023/07/02 06:30:13;;;;;;;14.73;4.80;;;;;;;;;;5054702;28;20040;-72
2023/07/02 06:32:39;;;;;;;15.13;4.88;;;;;;;;;;5037531;28;20037;-73
2023/07/02 06:35:06;;;;;;;18.13;5.72;;;;;;;;;;5042601;28;20044;-72
2023/07/02 06:37:32;;;;;;;15.18;3.55;;;;;;;;;;5048885;28;20119;-72
2023/07/02 06:39:58;;;;;;;15.00;4.20;;;;;;;;;;5039657;28;20115;-71
2023/07/02 06:42:25;;;;;;;17.80;4.28;;;;;;;;;;5058164;28;20455;-71
2023/07/02 06:44:51;;;;;;;13.80;3.80;;;;;;;;;;5047602;28;20542;-72
2023/07/02 06:47:17;;;;;;;13.07;3.67;;;;;;;;;;5054768;28;20087;-72
2023/07/02 06:49:43;;;;;;;16.13;3.05;;;;;;;;;;5044258;28;20049;-72
2023/07/02 06:52:09;;;;;;;10.23;3.85;;;;;;;;;;5051572;28;20037;-73
2023/07/02 06:54:35;;;;;;;12.02;3.83;;;;;;;;;;5053512;28;20044;-72
2023/07/02 06:57:02;;;;;;;22.20;4.22;;;;;;;;;;5049234;28;20064;-72
2023/07/02 06:59:28;;;;;;;14.57;3.45;;;;;;;;;;5052053;28;20036;-73
2023/07/02 07:01:54;;;;;;;16.75;3.92;;;;;;;;;;5048987;28;20033;-72
2023/07/02 07:04:20;;;;;;;13.75;4.05;;;;;;;;;;5051764;28;20036;-72
2023/07/02 07:06:46;;;;;;;13.57;4.03;;;;;;;;;;5045954;28;20033;-72
2023/07/02 07:09:12;;;;;;;14.27;2.97;;;;;;;;;;5052705;28;20374;-71
2023/07/02 07:11:38;;;;;;;14.90;4.70;;;;;;;;;;5053888;28;20043;-73
2023/07/02 07:14:04;;;;;;;12.82;3.40;;;;;;;;;;5049790;28;20136;-73
2023/07/02 07:16:30;;;;;;;13.90;3.63;;;;;;;;;;5044688;28;20044;-73
2023/07/02 07:18:56;;;;;;;15.88;3.60;;;;;;;;;;5051533;28;20489;-72
2023/07/02 07:21:22;;;;;;;8.52;3.10;;;;;;;;;;5054944;28;20085;-73
2023/07/02 07:23:48;;;;;;;13.80;3.70;;;;;;;;;;5042738;28;20067;-72
2023/07/02 07:26:14;;;;;;;13.30;3.88;;;;;;;;;;5066495;28;20032;-72
2023/07/02 07:28:41;;;;;;;13.82;3.83;;;;;;;;;;5052186;28;20335;-72
2023/07/02 07:31:07;;;;;;;10.82;3.83;;;;;;;;;;5054691;28;20026;-72
2023/07/02 07:33:33;;;;;;;15.30;3.95;;;;;;;;;;5039305;28;20086;-72
2023/07/02 07:35:59;;;;;;;12.90;3.47;;;;;;;;;;5053034;28;20041;-72
2023/07/02 07:38:26;;;;;;;14.48;3.95;;;;;;;;;;5049458;28;20029;-72
2023/07/02 07:40:52;;;;;;;10.15;3.33;;;;;;;;;;5052672;28;20028;-73
2023/07/02 07:43:18;;;;;;;14.95;3.90;;;;;;;;;;5044725;28;20029;-72
2023/07/02 07:45:44;;;;;;;12.32;3.15;;;;;;;;;;5051861;28;20116;-72
2023/07/02 07:48:10;;;;;;;10.68;3.42;;;;;;;;;;5055100;28;20079;-72
2023/07/02 07:50:36;;;;;;;17.08;4.18;;;;;;;;;;5054182;28;20064;-73
2023/07/02 07:53:02;;;;;;;13.50;3.20;;;;;;;;;;5053716;28;20454;-73
2023/07/02 07:55:28;;;;;;;15.50;4.10;;;;;;;;;;5047773;28;20041;-73
2023/07/02 07:57:54;;;;;;;15.57;4.35;;;;;;;;;;5050067;28;20522;-72
2023/07/02 08:00:21;;;;;;;15.40;4.07;;;;;;;;;;5051199;28;20798;-72
2023/07/02 08:02:47;;;;;;;13.30;3.90;;;;;;;;;;5064880;28;20481;-72
2023/07/02 08:05:13;;;;;;;12.55;3.05;;;;;;;;;;5043612;28;20116;-72
2023/07/02 08:07:43;;;;;;;15.75;3.40;;;;;;;;;;5050659;28;20362;-74
2023/07/02 08:10:09;;;;;;;13.75;3.67;;;;;;;;;;5052005;28;20033;-78
2023/07/02 08:12:35;;;;;;;17.90;3.83;;;;;;;;;;5052328;28;20040;-77
2023/07/02 08:15:01;;;;;;;11.93;4.35;;;;;;;;;;5046972;28;20045;-76
2023/07/02 08:17:27;;;;;;;20.65;4.18;;;;;;;;;;5043079;28;20048;-77
2023/07/02 08:19:53;;;;;;;14.02;4.35;;;;;;;;;;5037266;28;20052;-72
2023/07/02 08:22:19;;;;;;;21.77;6.15;;;;;;;;;;5041301;28;20030;-73
2023/07/02 08:24:49;;;;;;;13.55;4.22;;;;;;;;;;5054985;28;20112;-72
2023/07/02 08:27:16;;;;;;;17.10;4.95;;;;;;;;;;5053131;28;20028;-74
2023/07/02 08:29:42;;;;;;;14.55;4.18;;;;;;;;;;5049948;28;20491;-76
2023/07/02 08:32:08;;;;;;;9.07;3.60;;;;;;;;;;5036699;28;20500;-73
2023/07/02 08:34:34;;;;;;;14.15;3.53;;;;;;;;;;5052333;28;20055;-75
2023/07/02 08:37:00;;;;;;;14.27;3.78;;;;;;;;;;5046284;28;20525;-73
2023/07/02 08:39:26;;;;;;;13.75;3.50;;;;;;;;;;5055235;28;20052;-72
2023/07/02 08:41:52;;;;;;;10.55;3.33;;;;;;;;;;5052876;28;20043;-71
2023/07/02 08:44:20;;;;;;;9.32;4.07;;;;;;;;;;5056217;28;20033;-73
2023/07/02 08:46:50;;;;;;;9.65;3.70;;;;;;;;;;5046012;28;20020;-72
2023/07/02 08:49:16;;;;;;;13.00;3.83;;;;;;;;;;5048055;28;20036;-72
2023/07/02 08:51:44;;;;;;;16.98;4.50;;;;;;;;;;5052445;28;20484;-72
2023/07/02 08:54:10;;;;;;;8.68;3.00;;;;;;;;;;5050445;28;20045;-74
2023/07/02 08:56:36;;;;;;;12.90;4.07;;;;;;;;;;5051417;28;20106;-72
2023/07/02 08:59:02;;;;;;;13.77;3.72;;;;;;;;;;5046929;28;20388;-75
2023/07/02 09:01:28;;;;;;;13.57;4.50;;;;;;;;;;5047720;28;20036;-74
2023/07/02 09:04:01;;;;;;;14.73;4.55;;;;;;;;;;5040707;28;20032;-75
2023/07/02 09:06:27;;;;;;;11.27;3.65;;;;;;;;;;5056867;28;20028;-76
2023/07/02 09:08:54;;;;;;;15.10;3.67;;;;;;;;;;5045570;28;20043;-75
2023/07/02 09:11:20;;;;;;;13.23;3.53;;;;;;;;;;5034415;28;20406;-75
2023/07/02 09:13:58;;;;;;;14.18;4.03;;;;;;;;;;5048524;28;20674;-75
2023/07/02 09:16:31;;;;;;;12.93;3.83;;;;;;;;;;5046638;28;20506;-75
2023/07/02 09:19:05;;;;;;;12.80;3.75;;;;;;;;;;5049149;28;20062;-73
2023/07/02 09:21:43;;;;;;;14.38;3.72;;;;;;;;;;5041812;28;20033;-79
2023/07/02 09:24:13;;;;;;;25.65;6.18;;;;;;;;;;5050830;28;20036;-74
2023/07/02 09:26:42;;;;;;;9.93;3.35;;;;;;;;;;5047993;28;20108;-72
2023/07/02 09:29:08;;;;;;;10.77;3.75;;;;;;;;;;5051208;28;20028;-72
2023/07/02 09:31:43;;;;;;;10.73;3.13;;;;;;;;;;5046048;28;20063;-73
2023/07/02 09:34:09;;;;;;;15.40;3.75;;;;;;;;;;5065052;28;20036;-73
2023/07/02 09:36:40;;;;;;;10.68;3.00;;;;;;;;;;5035541;28;20037;-73
2023/07/02 09:39:06;;;;;;;12.43;2.95;;;;;;;;;;5051409;28;20039;-71
2023/07/02 09:41:33;;;;;;;12.07;3.25;;;;;;;;;;5049985;28;20060;-71
2023/07/02 09:44:01;;;;;;;12.20;3.67;;;;;;;;;;5051498;28;20045;-72
2023/07/02 09:46:27;;;;;;;13.20;3.10;;;;;;;;;;5052979;28;20050;-70
2023/07/02 09:48:53;;;;;;;12.73;3.75;;;;;;;;;;5034036;28;20430;-71
2023/07/02 09:51:19;;;;;;;9.48;3.25;;;;;;;;;;5053489;28;20121;-71
2023/07/02 09:53:45;;;;;;;7.95;3.00;;;;;;;;;;5055766;28;20501;-72
2023/07/02 09:56:13;;;;;;;11.90;3.25;;;;;;;;;;5048532;28;20060;-73
2023/07/02 09:58:39;;;;;;;13.55;3.60;;;;;;;;;;5048518;28;20103;-72
2023/07/02 10:01:05;;;;;;;11.75;3.17;;;;;;;;;;5059355;28;20049;-74
2023/07/02 10:03:32;;;;;;;11.38;3.38;;;;;;;;;;5052275;28;20030;-73
2023/07/02 10:06:05;;;;;;;7.15;2.90;;;;;;;;;;5037862;28;20026;-74
2023/07/02 10:08:31;;;;;;;8.40;2.42;;;;;;;;;;5044883;28;20043;-74
2023/07/02 10:11:07;;;;;;;6.55;2.70;;;;;;;;;;5049092;28;20047;-75
2023/07/02 10:13:33;;;;;;;10.35;3.15;;;;;;;;;;5045308;28;20371;-72
2023/07/02 10:16:03;;;;;;;12.15;3.60;;;;;;;;;;5045863;28;20623;-72
2023/07/02 10:18:29;;;;;;;11.68;3.20;;;;;;;;;;5060577;28;20039;-73
2023/07/02 10:20:55;;;;;;;10.32;3.10;;;;;;;;;;5044294;28;20032;-72
2023/07/02 10:23:21;;;;;;;10.95;3.40;;;;;;;;;;5046726;28;20029;-72
2023/07/02 10:25:47;;;;;;;10.88;2.72;;;;;;;;;;5052670;28;20041;-72
2023/07/02 10:28:22;;;;;;;8.63;2.38;;;;;;;;;;5054484;28;20398;-73
2023/07/02 10:30:48;;;;;;;13.55;3.20;;;;;;;;;;5040706;28;20478;-73
2023/07/02 10:33:18;;;;;;;11.68;3.13;;;;;;;;;;5049940;28;20093;-74
2023/07/02 10:35:46;;;;;;;10.63;3.47;;;;;;;;;;5052092;28;20041;-73
2023/07/02 10:38:23;;;;;;;14.43;2.90;;;;;;;;;;5055787;28;20037;-73
2023/07/02 10:40:56;;;;;;;7.38;2.70;;;;;;;;;;5048775;28;20119;-74
2023/07/02 10:43:25;;;;;;;10.32;2.58;;;;;;;;;;5055116;28;20110;-74
2023/07/02 10:45:51;;;;;;;10.63;2.67;;;;;;;;;;5047164;28;20049;-74
2023/07/02 10:48:17;;;;;;;8.82;2.65;;;;;;;;;;5047343;28;20626;-74
2023/07/02 10:50:43;;;;;;;12.80;3.10;;;;;;;;;;5053843;28;20032;-74
2023/07/02 10:53:16;;;;;;;13.20;3.35;;;;;;;;;;5049881;28;20060;-75
2023/07/02 10:55:42;;;;;;;11.20;2.80;;;;;;;;;;5072677;28;20029;-74
2023/07/02 10:58:09;;;;;;;10.48;2.97;;;;;;;;;;5048802;28;20049;-75
2023/07/02 11:01:04;;;;;;;7.75;2.40;;;;;;;;;;5051243;28;20048;-75
2023/07/02 11:03:30;;;;;;;8.57;2.08;;;;;;;;;;5042925;28;20045;-74
2023/07/02 11:05:56;;;;;;;6.35;2.13;;;;;;;;;;5049361;28;20037;-74
2023/07/02 11:08:24;;;;;;;7.28;1.88;;;;;;;;;;5066193;28;20497;-75
2023/07/02 11:10:50;;;;;;;9.30;1.75;;;;;;;;;;5049475;28;20025;-75
2023/07/02 11:13:17;;;;;;;8.93;2.10;;;;;;;;;;5064450;28;20032;-73
2023/07/02 11:15:45;;;;;;;12.00;2.63;;;;;;;;;;5044847;28;20041;-73
2023/07/02 11:18:11;;;;;;;7.72;2.15;;;;;;;;;;5046972;28;20032;-74
2023/07/02 11:20:39;;;;;;;13.90;2.88;;;;;;;;;;5053112;28;20042;-73
2023/07/02 11:23:05;;;;;;;11.57;2.33;;;;;;;;;;5048159;28;20123;-74
2023/07/02 11:25:31;;;;;;;14.13;2.17;;;;;;;;;;5046550;28;20348;-74
2023/07/02 11:28:04;;;;;;;9.65;2.30;;;;;;;;;;5044756;28;20033;-74
2023/07/02 11:30:30;;;;;;;7.07;2.33;;;;;;;;;;5038467;28;20036;-73
2023/07/02 11:32:56;;;;;;;9.25;2.60;;;;;;;;;;5053475;28;20033;-75
2023/07/02 11:35:23;;;;;;;11.25;2.72;;;;;;;;;;5051875;28;20555;-72
2023/07/02 11:37:49;;;;;;;10.05;3.25;;;;;;;;;;5042483;28;20029;-73
2023/07/02 11:40:18;;;;;;;7.70;2.65;;;;;;;;;;5052839;28;20115;-74
2023/07/02 11:42:43;;;;;;;14.77;3.60;;;;;;;;;;5055404;28;20064;-73
2023/07/02 11:45:10;;;;;;;11.27;3.25;;;;;;;;;;5050430;28;20129;-73
2023/07/02 11:47:36;;;;;;;14.18;3.65;;;;;;;;;;5051866;28;20041;-74
2023/07/02 11:50:02;;;;;;;9.48;2.75;;;;;;;;;;5059399;28;20036;-73
2023/07/02 11:52:28;;;;;;;6.05;2.20;;;;;;;;;;5046683;28;20489;-73
2023/07/02 11:54:54;;;;;;;11.77;3.70;;;;;;;;;;5055421;28;20496;-72
2023/07/02 11:57:22;;;;;;;12.80;4.60;;;;;;;;;;5051363;28;20057;-71
2023/07/02 11:59:49;;;;;;;7.65;2.85;;;;;;;;;;5049005;28;20504;-71
2023/07/02 12:02:15;;;;;;;8.20;3.05;;;;;;;;;;5049076;28;20028;-72
2023/07/02 12:04:41;;;;;;;9.77;3.00;;;;;;;;;;5048319;28;20047;-73
2023/07/02 12:07:07;;;;;;;12.70;2.70;;;;;;;;;;5054251;28;20402;-72
2023/07/02 12:09:33;;;;;;;12.52;2.78;;;;;;;;;;5046749;28;20478;-72
2023/07/02 12:11:59;;;;;;;9.60;2.50;;;;;;;;;;5054544;28;20040;-73
2023/07/02 12:14:25;;;;;;;11.90;3.42;;;;;;;;;;5051113;28;20037;-73
2023/07/02 12:16:51;;;;;;;15.25;3.30;;;;;;;;;;5051102;28;20935;-72
2023/07/02 12:19:17;;;;;;;10.55;3.50;;;;;;;;;;5053266;28;20029;-72
2023/07/02 12:21:43;;;;;;;8.38;3.03;;;;;;;;;;5051119;28;20044;-71
2023/07/02 12:24:10;;;;;;;19.48;4.10;;;;;;;;;;5049281;28;20037;-73
2023/07/02 12:26:37;;;;;;;10.40;3.42;;;;;;;;;;5059507;28;20365;-72
2023/07/02 12:29:03;;;;;;;10.63;3.30;;;;;;;;;;5052863;28;20119;-72
2023/07/02 12:31:30;;;;;;;13.10;4.18;;;;;;;;;;5049720;28;20033;-73
2023/07/02 12:33:56;;;;;;;12.05;3.75;;;;;;;;;;5051460;28;20051;-73
2023/07/02 12:36:22;;;;;;;13.40;4.80;;;;;;;;;;5051553;28;20033;-72
2023/07/02 12:38:48;;;;;;;12.32;4.55;;;;;;;;;;5044530;28;20045;-74
2023/07/02 12:41:14;;;;;;;10.82;4.03;;;;;;;;;;5050839;28;20053;-73
2023/07/02 12:43:41;;;;;;;12.85;4.00;;;;;;;;;;5055873;28;20028;-72
2023/07/02 12:46:07;;;;;;;16.17;4.63;;;;;;;;;;5047734;28;20029;-72
2023/07/02 12:48:33;;;;;;;11.13;3.70;;;;;;;;;;5056370;28;20029;-71
2023/07/02 12:51:00;;;;;;;11.82;4.40;;;;;;;;;;5053200;28;20500;-71
2023/07/02 12:53:27;;;;;;;17.13;4.88;;;;;;;;;;5047187;28;20069;-71
2023/07/02 12:55:53;;;;;;;11.20;4.38;;;;;;;;;;5045290;28;20045;-74
2023/07/02 12:58:19;;;;;;;11.93;3.88;;;;;;;;;;5038489;28;20123;-74
2023/07/02 13:00:45;;;;;;;12.80;4.65;;;;;;;;;;5044373;28;20479;-73
2023/07/02 13:03:12;;;;;;;14.23;4.43;;;;;;;;;;5047992;28;20064;-73
2023/07/02 13:05:39;;;;;;;11.77;4.40;;;;;;;;;;5051155;28;20037;-71
2023/07/02 13:08:06;;;;;;;16.67;4.47;;;;;;;;;;5052287;28;20025;-72
2023/07/02 13:10:32;;;;;;;15.73;4.75;;;;;;;;;;5049195;28;20029;-71
2023/07/02 13:12:58;;;;;;;14.43;4.13;;;;;;;;;;5049092;28;20029;-72
2023/07/02 13:15:24;;;;;;;12.68;4.53;;;;;;;;;;5048666;28;20042;-72
2023/07/02 13:17:51;;;;;;;12.13;4.70;;;;;;;;;;5048948;28;20082;-72
2023/07/02 13:20:17;;;;;;;13.57;4.57;;;;;;;;;;5049038;28;20494;-73
2023/07/02 13:22:43;;;;;;;11.30;3.92;;;;;;;;;;5035975;28;20049;-74
2023/07/02 13:25:09;;;;;;;13.98;4.65;;;;;;;;;;5051806;28;20040;-72
2023/07/02 13:27:35;;;;;;;13.25;4.20;;;;;;;;;;5034261;28;20475;-72
2023/07/02 13:30:02;;;;;;;17.90;8.75;;;;;;;;;;5053233;28;20024;-77
2023/07/02 13:32:28;;;;;;;12.65;4.43;;;;;;;;;;5050601;28;20089;-74
2023/07/02 13:34:54;;;;;;;11.43;4.07;;;;;;;;;;5051671;28;20120;-74
2023/07/02 13:37:20;;;;;;;12.55;3.95;;;;;;;;;;5043211;28;20036;-77
2023/07/02 13:39:49;;;;;;;12.48;4.32;;;;;;;;;;5049616;28;20389;-75
2023/07/02 13:42:16;;;;;;;14.48;4.05;;;;;;;;;;5050798;28;20020;-74
2023/07/02 13:44:42;;;;;;;12.38;4.25;;;;;;;;;;5035873;28;20079;-75
2023/07/02 13:47:09;;;;;;;14.57;4.22;;;;;;;;;;5043096;28;20337;-75
2023/07/02 13:49:35;;;;;;;10.45;4.43;;;;;;;;;;5048962;28;20454;-74
2023/07/02 13:52:01;;;;;;;16.92;4.57;;;;;;;;;;5047291;28;20033;-74
2023/07/02 13:54:27;;;;;;;13.70;4.00;;;;;;;;;;5046216;28;20052;-73
2023/07/02 13:56:53;;;;;;;11.50;4.18;;;;;;;;;;5048376;28;20025;-75
2023/07/02 13:59:20;;;;;;;12.35;4.63;;;;;;;;;;5041268;28;20136;-75
2023/07/02 14:01:46;;;;;;;8.55;3.83;;;;;;;;;;5050553;28;20061;-75
2023/07/02 14:04:13;;;;;;;10.23;4.00;;;;;;;;;;5046618;28;20044;-76
2023/07/02 14:06:39;;;;;;;11.38;4.13;;;;;;;;;;5040614;28;20029;-76
2023/07/02 14:09:06;;;;;;;11.43;3.90;;;;;;;;;;5042315;28;20086;-73
2023/07/02 14:11:32;;;;;;;11.80;4.13;;;;;;;;;;5047469;28;20063;-76
2023/07/02 14:13:58;;;;;;;10.52;3.63;;;;;;;;;;5035303;28;20461;-75
2023/07/02 14:16:24;;;;;;;10.27;4.05;;;;;;;;;;5057508;28;20041;-75
2023/07/02 14:18:51;;;;;;;10.57;3.70;;;;;;;;;;5047935;28;20090;-75
2023/07/02 14:21:17;;;;;;;8.63;3.67;;;;;;;;;;5051236;28;20025;-76
2023/07/02 14:23:44;;;;;;;12.13;3.92;;;;;;;;;;5049221;28;20083;-75
2023/07/02 14:26:10;;;;;;;9.93;3.78;;;;;;;;;;5045519;28;20025;-76
2023/07/02 14:28:36;;;;;;;16.15;4.22;;;;;;;;;;5046097;28;20026;-75